sensor_id;sensor_type;location;lat;lon;timestamp;temperature;humidity
44435;DHT22;30138;20.964;105.830;2023-06-05T00:03:53;27.70;49.50
44435;DHT22;30138;20.964;105.830;2023-06-05T00:09:01;27.70;53.50
44435;DHT22;30138;20.964;105.830;2023-06-05T00:14:09;27.60;49.50
44435;DHT22;30138;20.964;105.830;2023-06-05T00:19:17;27.70;53.30
44435;DHT22;30138;20.964;105.830;2023-06-05T00:24:26;27.60;49.70
44435;DHT22;30138;20.964;105.830;2023-06-05T00:29:34;27.60;53.20
44435;DHT22;30138;20.964;105.830;2023-06-05T00:34:41;27.60;50.00
44435;DHT22;30138;20.964;105.830;2023-06-05T00:39:52;27.60;53.10
44435;DHT22;30138;20.964;105.830;2023-06-05T00:44:59;27.60;50.40
44435;DHT22;30138;20.964;105.830;2023-06-05T00:50:07;27.60;52.80
44435;DHT22;30138;20.964;105.830;2023-06-05T00:55:16;27.60;50.70
44435;DHT22;30138;20.964;105.830;2023-06-05T01:01:17;27.60;52.80
44435;DHT22;30138;20.964;105.830;2023-06-05T01:06:25;27.60;52.00
44435;DHT22;30138;20.964;105.830;2023-06-05T01:11:43;27.60;51.60
44435;DHT22;30138;20.964;105.830;2023-06-05T01:16:54;27.60;52.80
44435;DHT22;30138;20.964;105.830;2023-06-05T01:22:03;27.60;51.20
44435;DHT22;30138;20.964;105.830;2023-06-05T01:27:14;27.60;53.40
44435;DHT22;30138;20.964;105.830;2023-06-05T01:32:25;27.60;51.00
44435;DHT22;30138;20.964;105.830;2023-06-05T01:37:46;27.60;50.70
44435;DHT22;30138;20.964;105.830;2023-06-05T01:42:56;27.90;52.50
44435;DHT22;30138;20.964;105.830;2023-06-05T01:48:04;28.10;53.50
44435;DHT22;30138;20.964;105.830;2023-06-05T01:53:11;28.30;54.20
44435;DHT22;30138;20.964;105.830;2023-06-05T01:58:22;28.50;55.00
44435;DHT22;30138;20.964;105.830;2023-06-05T02:03:30;28.60;55.40
44435;DHT22;30138;20.964;105.830;2023-06-05T02:08:37;28.80;56.00
44435;DHT22;30138;20.964;105.830;2023-06-05T02:13:46;28.90;56.40
44435;DHT22;30138;20.964;105.830;2023-06-05T02:18:55;29.00;56.80
44435;DHT22;30138;20.964;105.830;2023-06-05T02:24:06;29.20;57.30
44435;DHT22;30138;20.964;105.830;2023-06-05T02:29:15;29.30;57.60
44435;DHT22;30138;20.964;105.830;2023-06-05T02:34:25;29.40;58.00
44435;DHT22;30138;20.964;105.830;2023-06-05T02:39:32;29.50;58.50
44435;DHT22;30138;20.964;105.830;2023-06-05T02:44:42;29.60;58.80
44435;DHT22;30138;20.964;105.830;2023-06-05T02:49:49;29.70;59.60
44435;DHT22;30138;20.964;105.830;2023-06-05T02:54:57;29.80;59.70
44435;DHT22;30138;20.964;105.830;2023-06-05T03:00:11;29.90;60.70
44435;DHT22;30138;20.964;105.830;2023-06-05T03:11:05;30.00;61.00
44435;DHT22;30138;20.964;105.830;2023-06-05T03:16:18;30.10;61.20
44435;DHT22;30138;20.964;105.830;2023-06-05T03:21:30;30.20;61.40
44435;DHT22;30138;20.964;105.830;2023-06-05T03:26:40;30.30;61.70
44435;DHT22;30138;20.964;105.830;2023-06-05T03:31:51;30.30;61.90
44435;DHT22;30138;20.964;105.830;2023-06-05T03:37:00;30.40;62.20
44435;DHT22;30138;20.964;105.830;2023-06-05T03:42:08;30.40;62.50
44435;DHT22;30138;20.964;105.830;2023-06-05T03:47:20;30.50;62.80
44435;DHT22;30138;20.964;105.830;2023-06-05T03:52:26;30.50;63.00
44435;DHT22;30138;20.964;105.830;2023-06-05T03:57:34;30.60;63.20
44435;DHT22;30138;20.964;105.830;2023-06-05T04:02:46;30.70;63.60
44435;DHT22;30138;20.964;105.830;2023-06-05T04:07:53;30.70;63.70
44435;DHT22;30138;20.964;105.830;2023-06-05T04:19:12;30.80;64.30
44435;DHT22;30138;20.964;105.830;2023-06-05T04:24:23;30.90;64.70
44435;DHT22;30138;20.964;105.830;2023-06-05T04:29:31;30.90;64.90
44435;DHT22;30138;20.964;105.830;2023-06-05T04:34:41;31.00;65.40
44435;DHT22;30138;20.964;105.830;2023-06-05T04:39:49;31.10;65.60
44435;DHT22;30138;20.964;105.830;2023-06-05T04:44:57;31.10;65.90
44435;DHT22;30138;20.964;105.830;2023-06-05T04:50:22;31.20;67.30
44435;DHT22;30138;20.964;105.830;2023-06-05T04:55:36;31.10;58.80
44435;DHT22;30138;20.964;105.830;2023-06-05T05:00:44;30.90;52.80
44435;DHT22;30138;20.964;105.830;2023-06-05T05:05:55;30.70;49.20
44435;DHT22;30138;20.964;105.830;2023-06-05T05:11:04;30.50;50.80
44435;DHT22;30138;20.964;105.830;2023-06-05T05:16:12;30.40;50.50
44435;DHT22;30138;20.964;105.830;2023-06-05T05:21:22;30.20;47.30
44435;DHT22;30138;20.964;105.830;2023-06-05T05:26:29;30.00;52.20
44435;DHT22;30138;20.964;105.830;2023-06-05T05:31:40;29.90;49.10
44435;DHT22;30138;20.964;105.830;2023-06-05T05:36:54;29.90;51.90
44435;DHT22;30138;20.964;105.830;2023-06-05T05:42:02;29.80;51.10
44435;DHT22;30138;20.964;105.830;2023-06-05T05:47:10;29.70;53.00
44435;DHT22;30138;20.964;105.830;2023-06-05T05:52:19;29.70;54.60
44435;DHT22;30138;20.964;105.830;2023-06-05T05:57:27;29.60;54.40
44435;DHT22;30138;20.964;105.830;2023-06-05T06:02:34;29.60;55.10
44435;DHT22;30138;20.964;105.830;2023-06-05T06:07:43;29.60;54.30
44435;DHT22;30138;20.964;105.830;2023-06-05T06:12:50;29.60;53.20
44435;DHT22;30138;20.964;105.830;2023-06-05T06:17:58;29.60;54.70
44435;DHT22;30138;20.964;105.830;2023-06-05T06:23:09;29.50;52.10
44435;DHT22;30138;20.964;105.830;2023-06-05T06:28:16;29.50;55.20
44435;DHT22;30138;20.964;105.830;2023-06-05T06:33:23;29.50;51.80
44435;DHT22;30138;20.964;105.830;2023-06-05T06:38:33;29.50;54.00
44435;DHT22;30138;20.964;105.830;2023-06-05T06:43:41;29.50;54.20
44435;DHT22;30138;20.964;105.830;2023-06-05T06:48:48;29.60;54.30
44435;DHT22;30138;20.964;105.830;2023-06-05T06:54:04;29.50;56.50
44435;DHT22;30138;20.964;105.830;2023-06-05T06:59:16;29.60;53.10
44435;DHT22;30138;20.964;105.830;2023-06-05T07:04:24;29.60;55.30
44435;DHT22;30138;20.964;105.830;2023-06-05T07:09:33;29.60;52.20
44435;DHT22;30138;20.964;105.830;2023-06-05T07:14:40;29.70;61.60
44435;DHT22;30138;20.964;105.830;2023-06-05T07:19:48;29.70;56.60
44435;DHT22;30138;20.964;105.830;2023-06-05T07:24:57;29.70;56.30
44435;DHT22;30138;20.964;105.830;2023-06-05T07:30:05;29.70;55.60
44435;DHT22;30138;20.964;105.830;2023-06-05T07:35:13;29.70;53.80
44435;DHT22;30138;20.964;105.830;2023-06-05T07:40:22;29.60;48.90
44435;DHT22;30138;20.964;105.830;2023-06-05T07:45:29;29.60;52.40
44435;DHT22;30138;20.964;105.830;2023-06-05T07:50:41;29.50;49.60
44435;DHT22;30138;20.964;105.830;2023-06-05T07:55:50;29.60;53.00
44435;DHT22;30138;20.964;105.830;2023-06-05T08:00:57;29.50;49.90
44435;DHT22;30138;20.964;105.830;2023-06-05T08:06:15;29.60;51.90
44435;DHT22;30138;20.964;105.830;2023-06-05T08:12:00;29.50;48.20
44435;DHT22;30138;20.964;105.830;2023-06-05T08:17:07;29.50;51.00
44435;DHT22;30138;20.964;105.830;2023-06-05T08:22:14;29.40;50.10
44435;DHT22;30138;20.964;105.830;2023-06-05T08:27:29;29.50;50.90
44435;DHT22;30138;20.964;105.830;2023-06-05T08:32:59;29.40;52.20
44435;DHT22;30138;20.964;105.830;2023-06-05T08:38:07;29.40;50.40
44435;DHT22;30138;20.964;105.830;2023-06-05T08:43:41;29.40;52.80
44435;DHT22;30138;20.964;105.830;2023-06-05T08:48:50;29.40;50.30
44435;DHT22;30138;20.964;105.830;2023-06-05T08:54:02;29.40;51.60
44435;DHT22;30138;20.964;105.830;2023-06-05T08:59:18;29.40;51.70
44435;DHT22;30138;20.964;105.830;2023-06-05T09:04:28;29.40;50.30
44435;DHT22;30138;20.964;105.830;2023-06-05T09:09:35;29.40;53.00
44435;DHT22;30138;20.964;105.830;2023-06-05T09:14:45;29.60;54.60
44435;DHT22;30138;20.964;105.830;2023-06-05T09:20:37;29.90;55.40
44435;DHT22;30138;20.964;105.830;2023-06-05T09:25:57;30.10;55.90
44435;DHT22;30138;20.964;105.830;2023-06-05T09:31:10;30.30;56.40
44435;DHT22;30138;20.964;105.830;2023-06-05T09:36:23;30.50;56.90
44435;DHT22;30138;20.964;105.830;2023-06-05T09:41:42;30.70;57.30
44435;DHT22;30138;20.964;105.830;2023-06-05T09:46:56;30.80;57.80
44435;DHT22;30138;20.964;105.830;2023-06-05T09:52:04;30.90;58.20
44435;DHT22;30138;20.964;105.830;2023-06-05T09:57:12;31.00;58.70
44435;DHT22;30138;20.964;105.830;2023-06-05T10:02:24;31.10;58.90
44435;DHT22;30138;20.964;105.830;2023-06-05T10:07:33;31.20;59.10
44435;DHT22;30138;20.964;105.830;2023-06-05T10:12:44;31.30;59.40
44435;DHT22;30138;20.964;105.830;2023-06-05T10:17:53;31.30;59.60
44435;DHT22;30138;20.964;105.830;2023-06-05T10:23:00;31.40;59.90
44435;DHT22;30138;20.964;105.830;2023-06-05T10:28:22;31.50;60.10
44435;DHT22;30138;20.964;105.830;2023-06-05T10:33:53;31.50;60.40
44435;DHT22;30138;20.964;105.830;2023-06-05T10:39:24;31.60;60.80
44435;DHT22;30138;20.964;105.830;2023-06-05T10:44:41;31.60;61.10
44435;DHT22;30138;20.964;105.830;2023-06-05T10:50:21;31.70;61.50
44435;DHT22;30138;20.964;105.830;2023-06-05T10:55:42;31.70;61.60
44435;DHT22;30138;20.964;105.830;2023-06-05T11:01:18;31.80;62.00
44435;DHT22;30138;20.964;105.830;2023-06-05T11:06:28;31.80;62.20
44435;DHT22;30138;20.964;105.830;2023-06-05T11:11:58;31.80;62.40
44435;DHT22;30138;20.964;105.830;2023-06-05T11:17:26;31.90;62.70
44435;DHT22;30138;20.964;105.830;2023-06-05T11:23:07;31.90;63.00
44435;DHT22;30138;20.964;105.830;2023-06-05T11:28:13;32.00;63.30
44435;DHT22;30138;20.964;105.830;2023-06-05T11:33:25;32.00;63.60
44435;DHT22;30138;20.964;105.830;2023-06-05T11:38:37;32.00;63.80
44435;DHT22;30138;20.964;105.830;2023-06-05T11:43:45;32.00;64.00
44435;DHT22;30138;20.964;105.830;2023-06-05T11:48:52;32.00;64.20
44435;DHT22;30138;20.964;105.830;2023-06-05T11:54:01;32.10;64.40
44435;DHT22;30138;20.964;105.830;2023-06-05T11:59:11;32.10;67.30
44435;DHT22;30138;20.964;105.830;2023-06-05T12:04:18;31.90;58.10
44435;DHT22;30138;20.964;105.830;2023-06-05T12:09:27;31.80;52.60
44435;DHT22;30138;20.964;105.830;2023-06-05T12:14:35;31.60;48.20
44435;DHT22;30138;20.964;105.830;2023-06-05T12:19:53;31.20;45.60
44435;DHT22;30138;20.964;105.830;2023-06-05T12:30:42;31.00;44.00
44435;DHT22;30138;20.964;105.830;2023-06-05T12:36:03;30.50;41.80
44435;DHT22;30138;20.964;105.830;2023-06-05T12:41:11;30.30;41.10
44435;DHT22;30138;20.964;105.830;2023-06-05T12:46:21;30.00;46.80
44435;DHT22;30138;20.964;105.830;2023-06-05T12:51:31;29.90;50.40
44435;DHT22;30138;20.964;105.830;2023-06-05T12:56:39;30.00;51.90
44435;DHT22;30138;20.964;105.830;2023-06-05T13:01:51;29.90;51.70
44435;DHT22;30138;20.964;105.830;2023-06-05T13:07:00;30.00;51.50
44435;DHT22;30138;20.964;105.830;2023-06-05T13:12:09;29.90;49.70
44435;DHT22;30138;20.964;105.830;2023-06-05T13:17:20;29.80;46.30
44435;DHT22;30138;20.964;105.830;2023-06-05T13:22:28;29.80;44.20
44435;DHT22;30138;20.964;105.830;2023-06-05T13:27:37;29.60;42.80
44435;DHT22;30138;20.964;105.830;2023-06-05T13:32:47;29.50;41.80
44435;DHT22;30138;20.964;105.830;2023-06-05T13:37:57;29.50;47.00
44435;DHT22;30138;20.964;105.830;2023-06-05T13:43:04;29.40;44.90
44435;DHT22;30138;20.964;105.830;2023-06-05T13:48:15;29.30;43.10
44435;DHT22;30138;20.964;105.830;2023-06-05T13:53:23;29.30;49.10
44435;DHT22;30138;20.964;105.830;2023-06-05T13:58:31;29.20;46.70
44435;DHT22;30138;20.964;105.830;2023-06-05T14:03:40;29.20;49.60
44435;DHT22;30138;20.964;105.830;2023-06-05T14:08:49;29.20;47.90
44435;DHT22;30138;20.964;105.830;2023-06-05T14:13:57;29.20;48.80
44435;DHT22;30138;20.964;105.830;2023-06-05T14:19:07;29.20;49.60
44435;DHT22;30138;20.964;105.830;2023-06-05T14:24:16;29.10;47.80
44435;DHT22;30138;20.964;105.830;2023-06-05T14:29:25;29.10;50.80
44435;DHT22;30138;20.964;105.830;2023-06-05T14:34:34;29.10;47.50
44435;DHT22;30138;20.964;105.830;2023-06-05T14:39:42;29.10;50.30
44435;DHT22;30138;20.964;105.830;2023-06-05T14:44:49;29.10;48.20
44435;DHT22;30138;20.964;105.830;2023-06-05T14:49:59;29.10;51.80
44435;DHT22;30138;20.964;105.830;2023-06-05T14:55:07;29.10;51.70
44435;DHT22;30138;20.964;105.830;2023-06-05T15:00:16;29.10;51.30
44435;DHT22;30138;20.964;105.830;2023-06-05T15:05:28;29.10;53.30
44435;DHT22;30138;20.964;105.830;2023-06-05T15:10:35;29.10;50.90
44435;DHT22;30138;20.964;105.830;2023-06-05T15:15:44;29.20;53.20
44435;DHT22;30138;20.964;105.830;2023-06-05T15:20:54;29.10;49.70
44435;DHT22;30138;20.964;105.830;2023-06-05T15:26:02;29.10;52.50
44435;DHT22;30138;20.964;105.830;2023-06-05T15:31:11;29.10;50.30
44435;DHT22;30138;20.964;105.830;2023-06-05T15:36:22;29.10;51.90
44435;DHT22;30138;20.964;105.830;2023-06-05T15:41:29;29.10;51.20
44435;DHT22;30138;20.964;105.830;2023-06-05T15:46:35;29.10;51.80
44435;DHT22;30138;20.964;105.830;2023-06-05T15:51:45;29.10;51.80
44435;DHT22;30138;20.964;105.830;2023-06-05T15:57:02;29.20;51.70
44435;DHT22;30138;20.964;105.830;2023-06-05T16:02:11;29.20;52.60
44435;DHT22;30138;20.964;105.830;2023-06-05T16:07:21;29.20;51.50
44435;DHT22;30138;20.964;105.830;2023-06-05T16:12:29;29.20;53.10
44435;DHT22;30138;20.964;105.830;2023-06-05T16:17:37;29.10;50.90
44435;DHT22;30138;20.964;105.830;2023-06-05T16:22:48;29.10;53.40
44435;DHT22;30138;20.964;105.830;2023-06-05T16:28:13;29.20;59.30
44435;DHT22;30138;20.964;105.830;2023-06-05T16:33:23;29.30;70.70
44435;DHT22;30138;20.964;105.830;2023-06-05T16:38:35;29.40;72.00
44435;DHT22;30138;20.964;105.830;2023-06-05T16:43:43;29.50;71.40
44435;DHT22;30138;20.964;105.830;2023-06-05T16:48:50;29.50;70.60
44435;DHT22;30138;20.964;105.830;2023-06-05T16:53:59;29.50;70.10
44435;DHT22;30138;20.964;105.830;2023-06-05T16:59:11;29.50;68.80
44435;DHT22;30138;20.964;105.830;2023-06-05T17:04:18;29.50;64.10
44435;DHT22;30138;20.964;105.830;2023-06-05T17:09:27;29.40;63.40
44435;DHT22;30138;20.964;105.830;2023-06-05T17:14:35;29.40;57.80
44435;DHT22;30138;20.964;105.830;2023-06-05T17:19:43;29.30;59.30
44435;DHT22;30138;20.964;105.830;2023-06-05T17:24:51;29.30;57.10
44435;DHT22;30138;20.964;105.830;2023-06-05T17:30:00;29.30;58.60
44435;DHT22;30138;20.964;105.830;2023-06-05T17:35:08;29.20;53.60
44435;DHT22;30138;20.964;105.830;2023-06-05T17:40:18;29.20;55.90
44435;DHT22;30138;20.964;105.830;2023-06-05T17:45:26;29.20;51.50
44435;DHT22;30138;20.964;105.830;2023-06-05T17:50:34;29.10;56.00
44435;DHT22;30138;20.964;105.830;2023-06-05T17:55:45;29.00;53.40
44435;DHT22;30138;20.964;105.830;2023-06-05T18:00:52;29.00;57.90
44435;DHT22;30138;20.964;105.830;2023-06-05T18:06:00;29.00;53.70
44435;DHT22;30138;20.964;105.830;2023-06-05T18:11:10;29.00;57.40
44435;DHT22;30138;20.964;105.830;2023-06-05T18:16:18;28.90;53.20
44435;DHT22;30138;20.964;105.830;2023-06-05T18:21:27;29.00;56.70
44435;DHT22;30138;20.964;105.830;2023-06-05T18:26:38;28.90;52.70
44435;DHT22;30138;20.964;105.830;2023-06-05T18:31:46;28.90;58.90
44435;DHT22;30138;20.964;105.830;2023-06-05T18:36:55;28.90;59.50
44435;DHT22;30138;20.964;105.830;2023-06-05T18:42:05;28.90;61.40
44435;DHT22;30138;20.964;105.830;2023-06-05T18:47:14;28.90;58.80
44435;DHT22;30138;20.964;105.830;2023-06-05T18:52:21;28.90;57.40
44435;DHT22;30138;20.964;105.830;2023-06-05T18:57:31;28.90;56.80
44435;DHT22;30138;20.964;105.830;2023-06-05T19:02:38;28.80;55.40
44435;DHT22;30138;20.964;105.830;2023-06-05T19:07:46;28.80;56.00
44435;DHT22;30138;20.964;105.830;2023-06-05T19:12:56;28.70;54.50
44435;DHT22;30138;20.964;105.830;2023-06-05T19:18:05;28.80;55.90
44435;DHT22;30138;20.964;105.830;2023-06-05T19:23:13;28.70;53.80
44435;DHT22;30138;20.964;105.830;2023-06-05T19:28:24;28.70;55.60
44435;DHT22;30138;20.964;105.830;2023-06-05T19:33:31;28.60;53.10
44435;DHT22;30138;20.964;105.830;2023-06-05T19:38:40;28.60;55.80
44435;DHT22;30138;20.964;105.830;2023-06-05T19:43:49;28.60;52.60
44435;DHT22;30138;20.964;105.830;2023-06-05T19:48:57;28.60;55.60
44435;DHT22;30138;20.964;105.830;2023-06-05T19:54:05;28.50;52.20
44435;DHT22;30138;20.964;105.830;2023-06-05T19:59:14;28.50;55.70
44435;DHT22;30138;20.964;105.830;2023-06-05T20:04:23;28.50;52.40
44435;DHT22;30138;20.964;105.830;2023-06-05T20:09:30;28.50;55.40
44435;DHT22;30138;20.964;105.830;2023-06-05T20:14:41;28.50;54.50
44435;DHT22;30138;20.964;105.830;2023-06-05T20:19:49;28.50;60.90
44435;DHT22;30138;20.964;105.830;2023-06-05T20:24:59;28.50;55.10
44435;DHT22;30138;20.964;105.830;2023-06-05T20:30:10;28.50;57.80
44435;DHT22;30138;20.964;105.830;2023-06-05T20:35:19;28.50;53.20
44435;DHT22;30138;20.964;105.830;2023-06-05T20:40:27;28.50;56.40
44435;DHT22;30138;20.964;105.830;2023-06-05T20:45:38;28.50;52.50
44435;DHT22;30138;20.964;105.830;2023-06-05T20:50:47;28.40;55.60
44435;DHT22;30138;20.964;105.830;2023-06-05T20:55:54;28.60;56.80
44435;DHT22;30138;20.964;105.830;2023-06-05T21:01:04;28.80;57.50
44435;DHT22;30138;20.964;105.830;2023-06-05T21:06:12;29.00;58.10
44435;DHT22;30138;20.964;105.830;2023-06-05T21:11:20;29.10;58.50
44435;DHT22;30138;20.964;105.830;2023-06-05T21:16:32;29.20;58.90
44435;DHT22;30138;20.964;105.830;2023-06-05T21:21:41;29.40;59.30
44435;DHT22;30138;20.964;105.830;2023-06-05T21:26:51;29.50;59.70
44435;DHT22;30138;20.964;105.830;2023-06-05T21:32:00;29.60;60.00
44435;DHT22;30138;20.964;105.830;2023-06-05T21:37:07;29.60;60.40
44435;DHT22;30138;20.964;105.830;2023-06-05T21:42:17;29.70;60.80
44435;DHT22;30138;20.964;105.830;2023-06-05T21:47:27;29.70;61.20
44435;DHT22;30138;20.964;105.830;2023-06-05T21:52:34;29.80;61.60
44435;DHT22;30138;20.964;105.830;2023-06-05T21:57:45;29.90;62.10
44435;DHT22;30138;20.964;105.830;2023-06-05T22:02:54;30.00;62.50
44435;DHT22;30138;20.964;105.830;2023-06-05T22:08:02;30.00;62.70
44435;DHT22;30138;20.964;105.830;2023-06-05T22:13:09;30.10;63.10
44435;DHT22;30138;20.964;105.830;2023-06-05T22:18:19;30.10;63.30
44435;DHT22;30138;20.964;105.830;2023-06-05T22:23:31;30.20;63.50
44435;DHT22;30138;20.964;105.830;2023-06-05T22:28:38;30.20;63.80
44435;DHT22;30138;20.964;105.830;2023-06-05T22:33:47;30.30;64.10
44435;DHT22;30138;20.964;105.830;2023-06-05T22:38:54;30.20;64.20
44435;DHT22;30138;20.964;105.830;2023-06-05T22:44:02;30.30;64.60
44435;DHT22;30138;20.964;105.830;2023-06-05T22:49:11;30.30;64.70
44435;DHT22;30138;20.964;105.830;2023-06-05T22:54:19;30.30;64.90
44435;DHT22;30138;20.964;105.830;2023-06-05T22:59:26;30.40;65.20
44435;DHT22;30138;20.964;105.830;2023-06-05T23:04:36;30.40;65.30
44435;DHT22;30138;20.964;105.830;2023-06-05T23:09:43;30.40;65.50
44435;DHT22;30138;20.964;105.830;2023-06-05T23:14:50;30.40;65.70
44435;DHT22;30138;20.964;105.830;2023-06-05T23:19:59;30.40;65.90
44435;DHT22;30138;20.964;105.830;2023-06-05T23:25:08;30.50;66.20
44435;DHT22;30138;20.964;105.830;2023-06-05T23:30:15;30.50;66.30
44435;DHT22;30138;20.964;105.830;2023-06-05T23:35:24;30.50;66.60
44435;DHT22;30138;20.964;105.830;2023-06-05T23:40:32;30.50;66.70
44435;DHT22;30138;20.964;105.830;2023-06-05T23:45:40;30.50;66.90
44435;DHT22;30138;20.964;105.830;2023-06-05T23:50:49;30.50;67.10
44435;DHT22;30138;20.964;105.830;2023-06-05T23:55:56;30.50;67.40
